createdAt,value
2023-04-12T00:00:12.538Z,23.03
2023-04-12T00:02:40.304Z,22.53
2023-04-12T00:05:09.678Z,18.13
2023-04-12T00:07:38.423Z,22.77
2023-04-12T00:10:09.570Z,22.97
2023-04-12T00:12:36.371Z,19.20
2023-04-12T00:15:03.367Z,22.50
2023-04-12T00:17:30.216Z,18.13
2023-04-12T00:19:57.520Z,20.80
2023-04-12T00:22:26.598Z,20.30
2023-04-12T00:24:53.359Z,18.60
2023-04-12T00:27:20.301Z,23.97
2023-04-12T00:29:47.152Z,20.40
2023-04-12T00:32:13.982Z,19.03
2023-04-12T00:34:40.918Z,19.03
2023-04-12T00:37:07.690Z,20.83
2023-04-12T00:39:34.549Z,18.70
2023-04-12T00:42:05.212Z,20.17
2023-04-12T00:44:33.128Z,16.27
2023-04-12T00:47:00.761Z,14.50
2023-04-12T00:49:30.895Z,16.07
2023-04-12T00:52:11.138Z,16.93
2023-04-12T00:54:38.325Z,15.85
2023-04-12T00:57:05.810Z,15.27
2023-04-12T00:59:32.614Z,14.93
2023-04-12T01:02:00.729Z,14.80
2023-04-12T01:04:28.299Z,17.40
2023-04-12T01:07:02.365Z,17.00
2023-04-12T01:10:13.966Z,13.57
2023-04-12T01:13:06.806Z,12.30
2023-04-12T01:15:38.144Z,16.73
2023-04-12T01:18:34.245Z,13.43
2023-04-12T01:21:16.316Z,15.52
2023-04-12T01:24:05.440Z,15.67
2023-04-12T01:26:33.351Z,14.10
2023-04-12T01:29:04.875Z,20.83
2023-04-12T01:31:35.987Z,14.60
2023-04-12T01:34:11.711Z,14.65
2023-04-12T01:36:40.146Z,13.30
2023-04-12T01:39:08.210Z,13.85
2023-04-12T01:41:44.191Z,12.17
2023-04-12T01:44:14.397Z,15.87
2023-04-12T01:46:41.783Z,12.30
2023-04-12T01:49:08.851Z,11.33
2023-04-12T01:51:52.698Z,8.40
2023-04-12T01:54:27.629Z,10.77
2023-04-12T01:56:58.409Z,7.83
2023-04-12T01:59:36.415Z,11.10
2023-04-12T02:02:03.940Z,7.60
2023-04-12T02:04:31.683Z,8.07
2023-04-12T02:06:58.643Z,7.35
2023-04-12T02:09:26.587Z,5.50
2023-04-12T02:11:53.400Z,9.73
2023-04-12T02:14:20.369Z,6.90
2023-04-12T02:16:47.927Z,7.65
2023-04-12T02:19:14.843Z,8.13
2023-04-12T02:21:45.610Z,7.03
2023-04-12T02:24:13.328Z,12.52
2023-04-12T02:26:40.229Z,9.38
2023-04-12T02:29:09.172Z,10.03
2023-04-12T02:31:38.954Z,8.17
2023-04-12T02:34:06.426Z,8.98
2023-04-12T02:36:33.399Z,9.45
2023-04-12T02:39:00.181Z,11.37
2023-04-12T02:41:26.985Z,11.00
2023-04-12T02:43:53.861Z,11.55
2023-04-12T02:46:24.389Z,9.50
2023-04-12T02:48:51.780Z,11.38
2023-04-12T02:51:18.654Z,11.73
2023-04-12T02:53:45.448Z,12.95
2023-04-12T02:56:13.004Z,16.98
2023-04-12T02:58:39.949Z,13.32
2023-04-12T03:01:07.714Z,14.90
2023-04-12T03:03:36.013Z,13.45
2023-04-12T03:06:03.841Z,18.15
2023-04-12T03:08:31.179Z,13.90
2023-04-12T03:10:58.132Z,16.13
2023-04-12T03:13:24.992Z,14.43
2023-04-12T03:16:00.359Z,12.93
2023-04-12T03:18:27.253Z,17.58
2023-04-12T03:20:54.148Z,18.33
2023-04-12T03:23:21.423Z,14.30
2023-04-12T03:25:48.193Z,20.60
2023-04-12T03:28:14.974Z,15.70
2023-04-12T03:30:41.792Z,14.68
2023-04-12T03:33:08.841Z,18.40
2023-04-12T03:35:35.785Z,15.85
2023-04-12T03:38:02.696Z,19.53
2023-04-12T03:40:29.528Z,17.50
2023-04-12T03:42:56.360Z,16.60
2023-04-12T03:45:23.137Z,18.00
2023-04-12T03:47:50.063Z,21.63
2023-04-12T03:50:17.149Z,23.07
2023-04-12T03:52:43.988Z,16.30
2023-04-12T03:55:12.280Z,21.50
2023-04-12T03:57:39.243Z,17.93
2023-04-12T04:00:08.764Z,24.77
2023-04-12T04:02:36.319Z,18.27
2023-04-12T04:05:04.001Z,19.55
2023-04-12T04:07:31.985Z,21.63
2023-04-12T04:09:59.869Z,18.77
2023-04-12T04:12:28.079Z,17.73
2023-04-12T04:14:54.870Z,18.87
2023-04-12T04:17:21.654Z,18.37
2023-04-12T04:19:48.486Z,20.73
2023-04-12T04:22:15.611Z,19.33
2023-04-12T04:24:42.818Z,23.70
2023-04-12T04:27:10.053Z,20.90
2023-04-12T04:29:44.108Z,21.13
2023-04-12T04:32:11.459Z,19.70
2023-04-12T04:34:38.614Z,18.33
2023-04-12T04:37:05.314Z,23.60
2023-04-12T04:39:33.028Z,25.87
2023-04-12T04:41:59.973Z,17.70
2023-04-12T04:44:26.715Z,20.60
2023-04-12T04:46:53.459Z,18.57
2023-04-12T04:49:20.287Z,19.97
2023-04-12T04:51:47.055Z,18.27
2023-04-12T04:54:14.221Z,24.50
2023-04-12T04:56:41.092Z,24.60
2023-04-12T04:59:07.917Z,19.30
2023-04-12T05:01:36.587Z,17.87
2023-04-12T05:04:04.419Z,19.92
2023-04-12T05:06:31.352Z,25.23
2023-04-12T05:08:58.576Z,23.40
2023-04-12T05:11:25.836Z,23.20
2023-04-12T05:13:52.852Z,23.10
2023-04-12T05:16:19.696Z,20.43
2023-04-12T05:18:46.836Z,21.40
2023-04-12T05:21:13.620Z,27.43
2023-04-12T05:23:46.929Z,22.53
2023-04-12T05:26:13.949Z,19.50
2023-04-12T05:28:41.260Z,21.17
2023-04-12T05:31:08.667Z,25.80
2023-04-12T05:33:36.833Z,21.10
2023-04-12T05:36:04.174Z,19.13
2023-04-12T05:38:31.094Z,20.27
2023-04-12T05:40:57.919Z,20.53
2023-04-12T05:43:24.749Z,17.33
2023-04-12T05:45:52.001Z,25.87
2023-04-12T05:48:19.309Z,23.63
2023-04-12T05:50:53.496Z,23.50
2023-04-12T05:53:21.792Z,28.13
2023-04-12T05:55:48.605Z,23.93
2023-04-12T05:58:15.721Z,22.27
2023-04-12T06:00:42.675Z,21.42
2023-04-12T06:03:11.599Z,23.57
2023-04-12T06:05:39.209Z,18.33
2023-04-12T06:08:06.616Z,26.08
2023-04-12T06:10:33.497Z,22.93
2023-04-12T06:13:00.521Z,22.27
2023-04-12T06:15:27.362Z,23.53
2023-04-12T06:17:54.361Z,29.95
2023-04-12T06:20:21.443Z,19.23
2023-04-12T06:22:48.264Z,20.23
2023-04-12T06:25:16.690Z,22.80
2023-04-12T06:27:43.956Z,24.80
2023-04-12T06:30:11.434Z,22.90
2023-04-12T06:32:38.727Z,26.73
2023-04-12T06:35:06.156Z,25.77
2023-04-12T06:37:33.154Z,20.70
2023-04-12T06:40:00.138Z,23.77
2023-04-12T06:42:27.018Z,24.57
2023-04-12T06:44:53.776Z,26.10
2023-04-12T06:47:22.840Z,20.33
2023-04-12T06:49:53.229Z,21.83
2023-04-12T06:52:23.802Z,28.80
2023-04-12T06:54:50.531Z,31.73
2023-04-12T06:57:17.331Z,20.97
2023-04-12T06:59:44.202Z,24.17
2023-04-12T07:02:12.115Z,21.13
2023-04-12T07:04:39.073Z,21.97
2023-04-12T07:07:06.597Z,23.10
2023-04-12T07:09:33.718Z,19.40
2023-04-12T07:12:01.242Z,19.83
2023-04-12T07:14:28.453Z,20.40
2023-04-12T07:16:55.264Z,26.67
2023-04-12T07:19:22.278Z,22.50
2023-04-12T07:21:49.146Z,29.70
2023-04-12T07:24:16.101Z,24.90
2023-04-12T07:26:42.949Z,24.00
2023-04-12T07:29:09.680Z,22.93
2023-04-12T07:31:36.669Z,28.00
2023-04-12T07:34:03.746Z,22.50
2023-04-12T07:36:33.666Z,21.37
2023-04-12T07:39:00.751Z,23.77
2023-04-12T07:41:28.819Z,23.47
2023-04-12T07:43:56.760Z,19.13
2023-04-12T07:46:23.795Z,20.83
2023-04-12T07:48:51.631Z,25.07
2023-04-12T07:51:18.737Z,20.60
2023-04-12T07:53:48.343Z,22.17
2023-04-12T07:56:15.597Z,20.93
2023-04-12T07:58:42.621Z,21.80
2023-04-12T08:01:13.721Z,26.10
2023-04-12T08:03:40.544Z,24.80
2023-04-12T08:06:08.114Z,19.37
2023-04-12T08:08:35.157Z,26.83
2023-04-12T08:11:03.284Z,23.97
2023-04-12T08:13:30.085Z,19.33
2023-04-12T08:15:56.918Z,21.37
2023-04-12T08:18:23.826Z,22.40
2023-04-12T08:20:50.744Z,21.37
2023-04-12T08:23:17.821Z,20.23
2023-04-12T08:25:44.731Z,19.97
2023-04-12T08:28:12.446Z,22.90
2023-04-12T08:30:39.243Z,23.30
2023-04-12T08:33:06.334Z,17.53
2023-04-12T08:35:33.162Z,23.53
2023-04-12T08:38:06.934Z,21.87
2023-04-12T08:40:33.984Z,21.03
2023-04-12T08:43:08.552Z,20.57
2023-04-12T08:46:16.636Z,21.17
2023-04-12T08:48:49.009Z,20.30
2023-04-12T08:51:21.277Z,19.77
2023-04-12T08:53:48.618Z,23.60
2023-04-12T08:56:16.815Z,28.57
2023-04-12T08:58:50.685Z,23.37
2023-04-12T09:01:19.927Z,25.13
2023-04-12T09:03:47.049Z,25.77
2023-04-12T09:06:14.398Z,22.87
2023-04-12T09:08:58.053Z,21.20
2023-04-12T09:11:27.413Z,22.40
2023-04-12T09:13:56.221Z,25.73
2023-04-12T09:16:40.627Z,24.90
2023-04-12T09:19:08.726Z,21.53
2023-04-12T09:21:36.544Z,25.97
2023-04-12T09:24:14.180Z,22.10
2023-04-12T09:26:42.430Z,19.47
2023-04-12T09:29:24.445Z,26.73
2023-04-12T09:32:05.838Z,22.37
2023-04-12T09:34:35.929Z,18.90
2023-04-12T09:37:23.137Z,19.63
2023-04-12T09:40:03.771Z,21.93
2023-04-12T09:42:34.106Z,20.63
2023-04-12T09:45:18.978Z,21.40
2023-04-12T09:47:45.862Z,16.00
2023-04-12T09:50:21.216Z,22.97
2023-04-12T09:52:48.507Z,22.27
2023-04-12T09:55:16.098Z,23.10
2023-04-12T09:57:44.570Z,17.80
2023-04-12T10:00:17.918Z,21.40
2023-04-12T10:02:48.122Z,17.43
2023-04-12T10:05:21.240Z,21.43
2023-04-12T10:07:48.860Z,17.77
2023-04-12T10:10:17.575Z,21.20
2023-04-12T10:12:48.375Z,22.00
2023-04-12T10:15:18.111Z,20.17
2023-04-12T10:17:48.577Z,20.43
2023-04-12T10:20:17.186Z,16.30
2023-04-12T10:22:52.100Z,13.93
2023-04-12T10:25:24.451Z,17.13
2023-04-12T10:27:51.674Z,17.23
2023-04-12T10:30:32.357Z,19.30
2023-04-12T10:33:05.747Z,16.13
2023-04-12T10:36:03.959Z,15.00
2023-04-12T10:38:37.412Z,21.13
2023-04-12T10:41:13.672Z,17.40
2023-04-12T10:43:45.226Z,23.43
2023-04-12T10:46:40.448Z,19.47
2023-04-12T10:49:12.093Z,16.50
2023-04-12T10:51:39.053Z,22.37
2023-04-12T10:54:08.974Z,16.33
2023-04-12T10:56:40.765Z,15.23
2023-04-12T10:59:17.064Z,21.20
2023-04-12T11:02:09.877Z,19.13
2023-04-12T11:04:37.352Z,13.37
2023-04-12T11:07:11.839Z,17.83
2023-04-12T11:09:43.183Z,15.13
2023-04-12T11:12:11.152Z,20.13
2023-04-12T11:14:50.236Z,17.63
2023-04-12T11:17:17.280Z,15.50
2023-04-12T11:19:59.209Z,24.50
2023-04-12T11:22:30.594Z,15.80
2023-04-12T11:25:00.396Z,14.60
2023-04-12T11:27:28.670Z,19.73
2023-04-12T11:29:57.875Z,14.60
2023-04-12T11:32:28.186Z,19.20
2023-04-12T11:34:56.938Z,18.13
2023-04-12T11:37:24.659Z,13.70
2023-04-12T11:39:57.166Z,13.63
2023-04-12T11:42:26.258Z,15.57
2023-04-12T11:45:00.164Z,12.40
2023-04-12T11:47:30.239Z,14.00
2023-04-12T11:49:59.190Z,15.20
2023-04-12T11:52:31.130Z,12.13
2023-04-12T11:55:01.797Z,14.50
2023-04-12T11:57:29.314Z,14.80
2023-04-12T11:59:57.856Z,12.90
2023-04-12T12:02:28.756Z,12.60
2023-04-12T12:04:57.825Z,20.57
2023-04-12T12:07:25.187Z,13.70
2023-04-12T12:09:52.831Z,15.20
2023-04-12T12:12:19.582Z,17.40
2023-04-12T12:14:49.068Z,12.10
2023-04-12T12:17:17.241Z,11.37
2023-04-12T12:19:46.156Z,22.60
2023-04-12T12:22:18.574Z,12.30
2023-04-12T12:24:56.810Z,14.70
2023-04-12T12:27:25.917Z,14.77
2023-04-12T12:29:54.555Z,13.53
2023-04-12T12:32:25.837Z,17.17
2023-04-12T12:34:56.725Z,11.97
2023-04-12T12:37:25.872Z,9.57
2023-04-12T12:40:14.289Z,17.10
2023-04-12T12:42:59.634Z,10.60
2023-04-12T12:45:28.425Z,8.63
2023-04-12T12:48:04.001Z,13.20
2023-04-12T12:50:36.278Z,12.90
2023-04-12T12:53:04.007Z,11.60
2023-04-12T12:55:33.704Z,11.47
2023-04-12T13:00:31.656Z,12.50
2023-04-12T13:02:58.919Z,13.10
2023-04-12T13:05:26.173Z,18.70
2023-04-12T13:07:53.080Z,11.57
2023-04-12T13:10:20.526Z,14.53
2023-04-12T13:12:47.403Z,17.07
2023-04-12T13:17:44.104Z,12.30
2023-04-12T13:20:11.015Z,11.07
2023-04-12T13:22:38.001Z,13.13
2023-04-12T13:25:05.216Z,15.67
2023-04-12T13:27:32.341Z,10.90
2023-04-12T13:29:59.697Z,13.33
2023-04-12T13:32:26.641Z,15.40
2023-04-12T13:34:53.450Z,16.10
2023-04-12T13:37:20.241Z,11.50
2023-04-12T13:39:47.021Z,17.20
2023-04-12T13:42:13.848Z,13.00
2023-04-12T13:44:40.763Z,14.93
2023-04-12T13:47:07.589Z,9.77
2023-04-12T13:49:34.489Z,10.40
2023-04-12T13:52:02.963Z,10.00
2023-04-12T13:54:30.789Z,16.53
2023-04-12T13:56:58.477Z,14.10
2023-04-12T13:59:26.856Z,16.67
2023-04-12T14:01:56.625Z,7.40
2023-04-12T14:04:23.456Z,9.60
2023-04-12T14:06:50.311Z,10.37
2023-04-12T14:09:28.360Z,9.63
2023-04-12T14:11:58.124Z,10.60
2023-04-12T14:14:26.318Z,11.47
2023-04-12T14:16:57.319Z,10.83
2023-04-12T14:19:24.854Z,10.20
2023-04-12T14:21:52.329Z,10.20
2023-04-12T14:24:20.375Z,8.20
2023-04-12T14:26:48.675Z,17.10
2023-04-12T14:29:15.687Z,11.00
2023-04-12T14:31:42.905Z,10.07
2023-04-12T14:34:10.785Z,11.70
2023-04-12T14:36:37.616Z,8.40
2023-04-12T14:39:06.958Z,8.83
2023-04-12T14:41:35.760Z,7.70
2023-04-12T14:44:02.591Z,9.70
2023-04-12T14:46:31.001Z,10.10
2023-04-12T14:49:01.006Z,10.33
2023-04-12T14:51:28.896Z,13.93
2023-04-12T14:53:56.278Z,11.70
2023-04-12T14:56:27.950Z,7.97
2023-04-12T14:58:56.476Z,9.30
2023-04-12T15:01:25.182Z,7.00
2023-04-12T15:03:53.160Z,11.53
2023-04-12T15:06:23.110Z,10.50
2023-04-12T15:08:57.488Z,11.83
2023-04-12T15:11:27.268Z,9.63
2023-04-12T15:13:55.311Z,10.30
2023-04-12T15:16:23.141Z,8.00
2023-04-12T15:18:51.914Z,9.83
2023-04-12T15:21:19.114Z,13.00
2023-04-12T15:23:46.349Z,10.50
2023-04-12T15:26:14.489Z,13.37
2023-04-12T15:28:41.852Z,9.93
2023-04-12T15:31:09.548Z,10.13
2023-04-12T15:33:37.316Z,9.70
2023-04-12T15:36:04.915Z,9.83
2023-04-12T15:38:32.119Z,11.80
2023-04-12T15:41:00.961Z,11.23
2023-04-12T15:43:28.389Z,10.17
2023-04-12T15:45:55.655Z,10.20
2023-04-12T15:48:23.747Z,9.37
2023-04-12T15:50:58.427Z,10.80
2023-04-12T15:53:27.206Z,10.50
2023-04-12T15:55:55.024Z,11.17
2023-04-12T15:58:27.372Z,11.10
2023-04-12T16:00:54.832Z,16.37
2023-04-12T16:03:26.343Z,12.50
2023-04-12T16:05:54.228Z,9.17
2023-04-12T16:08:22.302Z,9.90
2023-04-12T16:10:50.384Z,15.20
2023-04-12T16:13:17.382Z,12.10
2023-04-12T16:15:44.346Z,12.27
2023-04-12T16:18:11.293Z,7.97
2023-04-12T16:20:38.440Z,14.00
2023-04-12T16:23:05.329Z,12.00
2023-04-12T16:25:33.363Z,8.13
2023-04-12T16:28:02.945Z,14.10
2023-04-12T16:30:32.271Z,12.10
2023-04-12T16:32:59.528Z,12.93
2023-04-12T16:35:26.546Z,13.13
2023-04-12T16:37:55.017Z,12.50
2023-04-12T16:40:22.304Z,9.80
2023-04-12T16:42:49.174Z,16.73
2023-04-12T16:45:16.746Z,18.93
2023-04-12T16:47:47.047Z,11.33
2023-04-12T16:50:14.162Z,13.50
2023-04-12T16:52:41.690Z,10.50
2023-04-12T16:55:12.230Z,11.47
2023-04-12T16:57:40.849Z,11.23
2023-04-12T17:00:22.982Z,12.00
2023-04-12T17:02:51.758Z,18.83
2023-04-12T17:05:19.951Z,16.23
2023-04-12T17:07:51.546Z,18.00
2023-04-12T17:10:19.960Z,18.47
2023-04-12T17:12:48.453Z,12.33
2023-04-12T17:15:17.334Z,13.80
2023-04-12T17:17:49.570Z,16.70
2023-04-12T17:20:17.900Z,9.50
2023-04-12T17:22:45.505Z,11.67
2023-04-12T17:25:13.421Z,11.00
2023-04-12T17:27:41.105Z,9.97
2023-04-12T17:30:10.822Z,12.80
2023-04-12T17:32:38.297Z,9.50
2023-04-12T17:35:06.995Z,10.37
2023-04-12T17:37:37.525Z,12.30
2023-04-12T17:40:05.487Z,12.00
2023-04-12T17:42:32.603Z,12.03
2023-04-12T17:44:59.542Z,11.40
2023-04-12T17:47:26.356Z,10.30
2023-04-12T17:49:53.177Z,15.40
2023-04-12T17:52:20.019Z,9.97
2023-04-12T17:54:47.127Z,21.00
2023-04-12T17:57:14.035Z,12.50
2023-04-12T17:59:40.825Z,15.03
2023-04-12T18:02:07.814Z,13.60
2023-04-12T18:04:35.955Z,13.90
2023-04-12T18:07:04.435Z,14.73
2023-04-12T18:09:31.600Z,14.37
2023-04-12T18:11:58.461Z,11.43
2023-04-12T18:14:25.613Z,9.93
2023-04-12T18:16:52.577Z,10.77
2023-04-12T18:19:19.435Z,19.57
2023-04-12T18:21:49.473Z,10.90
2023-04-12T18:24:17.015Z,12.70
2023-04-12T18:26:45.100Z,14.93
2023-04-12T18:29:14.405Z,8.53
2023-04-12T18:31:41.892Z,12.23
2023-04-12T18:34:08.954Z,10.17
2023-04-12T18:36:39.535Z,13.30
2023-04-12T18:39:08.100Z,15.37
2023-04-12T18:41:35.257Z,13.27
2023-04-12T18:44:02.737Z,15.20
2023-04-12T18:46:29.778Z,13.93
2023-04-12T18:48:56.921Z,13.87
2023-04-12T18:51:24.325Z,15.07
2023-04-12T18:53:51.500Z,18.63
2023-04-12T18:56:23.288Z,20.13
2023-04-12T18:58:56.001Z,14.97
2023-04-12T19:01:24.316Z,16.87
2023-04-12T19:03:51.539Z,19.50
2023-04-12T19:06:18.627Z,17.30
2023-04-12T19:08:45.392Z,14.20
2023-04-12T19:11:12.396Z,17.27
2023-04-12T19:13:39.405Z,15.27
2023-04-12T19:16:09.537Z,15.57
2023-04-12T19:18:36.582Z,13.57
2023-04-12T19:21:04.349Z,18.57
2023-04-12T19:23:31.658Z,20.03
2023-04-12T19:26:00.249Z,18.07
2023-04-12T19:28:27.776Z,15.73
2023-04-12T19:30:56.706Z,14.80
2023-04-12T19:33:24.746Z,13.50
2023-04-12T19:35:52.204Z,17.53
2023-04-12T19:38:21.108Z,17.40
2023-04-12T19:40:48.190Z,18.43
2023-04-12T19:43:15.226Z,16.43
2023-04-12T19:45:42.372Z,17.23
2023-04-12T19:48:09.436Z,19.60
2023-04-12T19:50:36.372Z,14.77
2023-04-12T19:53:03.582Z,16.03
2023-04-12T19:55:30.565Z,15.97
2023-04-12T19:57:58.531Z,12.27
2023-04-12T20:00:27.260Z,13.80
2023-04-12T20:02:55.278Z,15.67
2023-04-12T20:05:23.771Z,19.93
2023-04-12T20:07:52.743Z,18.50
2023-04-12T20:10:20.217Z,14.20
2023-04-12T20:12:47.132Z,12.63
2023-04-12T20:15:14.158Z,12.77
2023-04-12T20:17:42.226Z,15.93
2023-04-12T20:20:17.278Z,15.23
2023-04-12T20:22:46.183Z,11.73
2023-04-12T20:25:14.433Z,13.50
2023-04-12T20:27:41.262Z,16.90
2023-04-12T20:30:11.105Z,12.40
2023-04-12T20:32:38.340Z,14.57
2023-04-12T20:35:05.670Z,12.50
2023-04-12T20:37:32.845Z,11.33
2023-04-12T20:39:59.719Z,14.18
2023-04-12T20:42:27.255Z,13.17
2023-04-12T20:44:54.488Z,18.70
2023-04-12T20:47:21.309Z,16.40
2023-04-12T20:49:48.174Z,15.85
2023-04-12T20:52:19.378Z,14.70
2023-04-12T20:54:48.193Z,15.02
2023-04-12T20:57:19.865Z,15.85
2023-04-12T20:59:47.023Z,16.80
2023-04-12T21:02:15.382Z,13.50
2023-04-12T21:04:42.533Z,14.88
2023-04-12T21:07:11.299Z,16.83
2023-04-12T21:09:38.783Z,25.10
2023-04-12T21:12:08.528Z,16.20
2023-04-12T21:14:37.604Z,12.43
2023-04-12T21:17:07.301Z,16.52
2023-04-12T21:19:41.095Z,11.20
2023-04-12T21:22:08.760Z,18.13
2023-04-12T21:24:38.284Z,10.90
2023-04-12T21:27:06.951Z,20.67
2023-04-12T21:29:34.822Z,11.05
2023-04-12T21:32:02.673Z,13.23
2023-04-12T21:34:29.737Z,11.88
2023-04-12T21:36:57.408Z,12.50
2023-04-12T21:39:24.197Z,14.82
2023-04-12T21:41:51.296Z,14.17
2023-04-12T21:44:18.218Z,16.90
2023-04-12T21:46:44.968Z,13.15
2023-04-12T21:49:11.786Z,11.02
2023-04-12T21:51:38.604Z,14.98
2023-04-12T21:54:05.441Z,15.52
2023-04-12T21:56:32.214Z,11.25
2023-04-12T21:59:00.133Z,12.55
2023-04-12T22:01:27.362Z,21.25
2023-04-12T22:03:54.269Z,16.13
2023-04-12T22:06:21.750Z,17.00
2023-04-12T22:08:48.557Z,12.40
2023-04-12T22:11:15.380Z,11.48
2023-04-12T22:13:42.260Z,12.40
2023-04-12T22:16:13.908Z,13.10
2023-04-12T22:18:41.254Z,15.18
2023-04-12T22:21:08.263Z,13.65
2023-04-12T22:23:38.768Z,14.02
2023-04-12T22:26:09.418Z,13.15
2023-04-12T22:28:39.521Z,23.45
2023-04-12T22:31:14.337Z,13.50
2023-04-12T22:33:41.663Z,16.80
2023-04-12T22:36:09.515Z,12.18
2023-04-12T22:38:37.431Z,14.45
2023-04-12T22:41:04.450Z,18.33
2023-04-12T22:43:42.198Z,18.15
2023-04-12T22:46:17.122Z,13.77
2023-04-12T22:48:45.952Z,14.05
2023-04-12T22:51:12.807Z,10.40
2023-04-12T22:53:40.070Z,17.77
2023-04-12T22:56:11.303Z,13.13
2023-04-12T22:58:40.287Z,14.90
2023-04-12T23:01:07.340Z,15.95
2023-04-12T23:03:34.326Z,12.55
2023-04-12T23:06:01.182Z,11.50
2023-04-12T23:08:29.182Z,25.73
2023-04-12T23:11:02.961Z,16.08
2023-04-12T23:13:33.900Z,21.02
2023-04-12T23:16:01.979Z,18.25
2023-04-12T23:18:28.894Z,12.68
2023-04-12T23:20:55.813Z,13.93
2023-04-12T23:23:24.620Z,17.08
2023-04-12T23:25:52.970Z,16.95
2023-04-12T23:28:21.792Z,16.98
2023-04-12T23:30:49.969Z,14.95
2023-04-12T23:33:21.482Z,18.20
2023-04-12T23:35:52.714Z,31.42
2023-04-12T23:38:32.138Z,17.42
2023-04-12T23:41:04.169Z,17.40
2023-04-12T23:43:32.665Z,17.27
2023-04-12T23:45:59.967Z,12.95
2023-04-12T23:48:27.249Z,18.25
2023-04-12T23:50:54.968Z,23.48
2023-04-12T23:53:21.992Z,19.27
2023-04-12T23:55:53.419Z,15.60
2023-04-12T23:58:21.063Z,16.55
